sensor_id;sensor_type;location;lat;lon;timestamp;temperature;humidity
27258;DHT22;62045;49.986;8.672;2023-02-28T00:01:16;17.20;45.20
27258;DHT22;62045;49.986;8.672;2023-02-28T00:06:16;17.10;45.20
27258;DHT22;62045;49.986;8.672;2023-02-28T00:11:17;17.10;45.40
27258;DHT22;62045;49.986;8.672;2023-02-28T00:16:19;17.00;45.50
27258;DHT22;62045;49.986;8.672;2023-02-28T00:21:20;16.90;45.60
27258;DHT22;62045;49.986;8.672;2023-02-28T00:26:21;16.90;45.80
27258;DHT22;62045;49.986;8.672;2023-02-28T00:31:23;16.90;45.70
27258;DHT22;62045;49.986;8.672;2023-02-28T00:36:24;17.00;45.60
27258;DHT22;62045;49.986;8.672;2023-02-28T00:41:24;17.10;45.50
27258;DHT22;62045;49.986;8.672;2023-02-28T00:46:26;17.20;45.30
27258;DHT22;62045;49.986;8.672;2023-02-28T00:51:27;17.20;45.20
27258;DHT22;62045;49.986;8.672;2023-02-28T00:56:27;17.10;45.30
27258;DHT22;62045;49.986;8.672;2023-02-28T01:01:29;17.00;45.40
27258;DHT22;62045;49.986;8.672;2023-02-28T01:06:30;16.90;45.50
27258;DHT22;62045;49.986;8.672;2023-02-28T01:11:30;16.80;45.60
27258;DHT22;62045;49.986;8.672;2023-02-28T01:16:32;16.80;45.70
27258;DHT22;62045;49.986;8.672;2023-02-28T01:21:33;16.80;45.70
27258;DHT22;62045;49.986;8.672;2023-02-28T01:26:33;16.90;45.60
27258;DHT22;62045;49.986;8.672;2023-02-28T01:31:35;17.00;45.40
27258;DHT22;62045;49.986;8.672;2023-02-28T01:36:36;17.10;45.30
27258;DHT22;62045;49.986;8.672;2023-02-28T01:41:36;17.10;45.20
27258;DHT22;62045;49.986;8.672;2023-02-28T01:46:38;17.10;45.20
27258;DHT22;62045;49.986;8.672;2023-02-28T01:51:39;17.10;45.30
27258;DHT22;62045;49.986;8.672;2023-02-28T01:56:42;17.00;45.40
27258;DHT22;62045;49.986;8.672;2023-02-28T02:01:45;16.80;45.50
27258;DHT22;62045;49.986;8.672;2023-02-28T02:06:46;16.80;45.60
27258;DHT22;62045;49.986;8.672;2023-02-28T02:11:47;16.80;45.70
27258;DHT22;62045;49.986;8.672;2023-02-28T02:16:54;16.90;45.60
27258;DHT22;62045;49.986;8.672;2023-02-28T02:22:11;17.00;45.50
27258;DHT22;62045;49.986;8.672;2023-02-28T02:27:18;17.00;45.30
27258;DHT22;62045;49.986;8.672;2023-02-28T02:37:41;17.10;45.20
27258;DHT22;62045;49.986;8.672;2023-02-28T02:42:45;17.00;45.20
27258;DHT22;62045;49.986;8.672;2023-02-28T02:47:47;17.00;45.30
27258;DHT22;62045;49.986;8.672;2023-02-28T02:52:50;16.90;45.40
27258;DHT22;62045;49.986;8.672;2023-02-28T02:57:53;16.80;45.60
27258;DHT22;62045;49.986;8.672;2023-02-28T03:02:54;16.80;45.60
27258;DHT22;62045;49.986;8.672;2023-02-28T03:07:56;16.90;45.50
27258;DHT22;62045;49.986;8.672;2023-02-28T03:13:00;17.00;45.40
27258;DHT22;62045;49.986;8.672;2023-02-28T03:18:05;17.00;45.20
27258;DHT22;62045;49.986;8.672;2023-02-28T03:23:13;17.10;45.10
27258;DHT22;62045;49.986;8.672;2023-02-28T03:28:17;17.10;45.10
27258;DHT22;62045;49.986;8.672;2023-02-28T03:33:21;17.10;45.20
27258;DHT22;62045;49.986;8.672;2023-02-28T03:38:24;17.00;45.30
27258;DHT22;62045;49.986;8.672;2023-02-28T03:43:28;16.90;45.40
27258;DHT22;62045;49.986;8.672;2023-02-28T03:48:30;16.80;45.50
27258;DHT22;62045;49.986;8.672;2023-02-28T03:53:34;16.80;45.60
27258;DHT22;62045;49.986;8.672;2023-02-28T03:58:37;16.80;45.50
27258;DHT22;62045;49.986;8.672;2023-02-28T04:03:38;16.90;45.30
27258;DHT22;62045;49.986;8.672;2023-02-28T04:08:41;17.00;45.20
27258;DHT22;62045;49.986;8.672;2023-02-28T04:13:41;17.10;45.70
27258;DHT22;62045;49.986;8.672;2023-02-28T04:18:42;17.10;45.10
27258;DHT22;62045;49.986;8.672;2023-02-28T04:23:44;17.00;45.00
27258;DHT22;62045;49.986;8.672;2023-02-28T04:28:44;17.00;45.10
27258;DHT22;62045;49.986;8.672;2023-02-28T04:33:45;16.90;45.20
27258;DHT22;62045;49.986;8.672;2023-02-28T04:38:47;16.80;45.30
27258;DHT22;62045;49.986;8.672;2023-02-28T04:43:47;16.70;45.40
27258;DHT22;62045;49.986;8.672;2023-02-28T04:48:48;16.70;45.40
27258;DHT22;62045;49.986;8.672;2023-02-28T04:53:50;16.70;45.50
27258;DHT22;62045;49.986;8.672;2023-02-28T04:58:51;16.60;46.10
27258;DHT22;62045;49.986;8.672;2023-02-28T05:03:52;16.50;45.60
27258;DHT22;62045;49.986;8.672;2023-02-28T05:08:54;16.50;45.80
27258;DHT22;62045;49.986;8.672;2023-02-28T05:13:55;16.60;45.70
27258;DHT22;62045;49.986;8.672;2023-02-28T05:18:55;16.80;45.40
27258;DHT22;62045;49.986;8.672;2023-02-28T05:24:00;17.00;45.10
27258;DHT22;62045;49.986;8.672;2023-02-28T05:29:00;17.10;44.80
27258;DHT22;62045;49.986;8.672;2023-02-28T05:34:01;17.20;44.60
27258;DHT22;62045;49.986;8.672;2023-02-28T05:39:03;17.20;44.50
27258;DHT22;62045;49.986;8.672;2023-02-28T05:44:05;17.20;44.60
27258;DHT22;62045;49.986;8.672;2023-02-28T05:49:05;17.10;44.70
27258;DHT22;62045;49.986;8.672;2023-02-28T05:54:07;17.00;44.90
27258;DHT22;62045;49.986;8.672;2023-02-28T05:59:08;16.90;45.10
27258;DHT22;62045;49.986;8.672;2023-02-28T06:04:09;16.80;45.20
27258;DHT22;62045;49.986;8.672;2023-02-28T06:09:11;17.00;45.30
27258;DHT22;62045;49.986;8.672;2023-02-28T06:14:13;17.20;45.10
27258;DHT22;62045;49.986;8.672;2023-02-28T06:19:14;17.40;44.90
27258;DHT22;62045;49.986;8.672;2023-02-28T06:24:16;17.40;44.80
27258;DHT22;62045;49.986;8.672;2023-02-28T06:29:17;17.40;45.00
27258;DHT22;62045;49.986;8.672;2023-02-28T06:34:17;17.30;45.20
27258;DHT22;62045;49.986;8.672;2023-02-28T06:39:19;17.30;45.50
27258;DHT22;62045;49.986;8.672;2023-02-28T06:44:20;17.10;45.70
27258;DHT22;62045;49.986;8.672;2023-02-28T06:49:20;17.00;45.90
27258;DHT22;62045;49.986;8.672;2023-02-28T06:54:22;16.80;46.10
27258;DHT22;62045;49.986;8.672;2023-02-28T06:59:23;16.80;46.10
27258;DHT22;62045;49.986;8.672;2023-02-28T07:04:23;17.00;46.00
27258;DHT22;62045;49.986;8.672;2023-02-28T07:09:25;17.20;45.60
27258;DHT22;62045;49.986;8.672;2023-02-28T07:14:26;17.40;45.20
27258;DHT22;62045;49.986;8.672;2023-02-28T07:19:26;17.50;45.10
27258;DHT22;62045;49.986;8.672;2023-02-28T07:24:28;17.40;45.00
27258;DHT22;62045;49.986;8.672;2023-02-28T07:29:29;17.30;45.00
27258;DHT22;62045;49.986;8.672;2023-02-28T07:34:30;17.20;45.10
27258;DHT22;62045;49.986;8.672;2023-02-28T07:39:31;17.10;45.20
27258;DHT22;62045;49.986;8.672;2023-02-28T07:44:32;16.90;45.40
27258;DHT22;62045;49.986;8.672;2023-02-28T07:49:32;16.80;45.60
27258;DHT22;62045;49.986;8.672;2023-02-28T07:54:34;16.80;45.60
27258;DHT22;62045;49.986;8.672;2023-02-28T07:59:35;17.00;45.50
27258;DHT22;62045;49.986;8.672;2023-02-28T08:04:35;17.20;45.10
27258;DHT22;62045;49.986;8.672;2023-02-28T08:09:37;17.40;44.80
27258;DHT22;62045;49.986;8.672;2023-02-28T08:14:38;17.50;44.60
27258;DHT22;62045;49.986;8.672;2023-02-28T08:19:39;17.50;44.50
27258;DHT22;62045;49.986;8.672;2023-02-28T08:24:41;17.40;44.40
27258;DHT22;62045;49.986;8.672;2023-02-28T08:29:42;17.20;44.30
27258;DHT22;62045;49.986;8.672;2023-02-28T08:34:42;17.10;44.40
27258;DHT22;62045;49.986;8.672;2023-02-28T08:39:44;16.90;44.40
27258;DHT22;62045;49.986;8.672;2023-02-28T08:44:45;16.80;44.30
27258;DHT22;62045;49.986;8.672;2023-02-28T08:49:45;16.60;44.60
27258;DHT22;62045;49.986;8.672;2023-02-28T08:54:47;16.50;44.80
27258;DHT22;62045;49.986;8.672;2023-02-28T08:59:48;16.50;45.00
27258;DHT22;62045;49.986;8.672;2023-02-28T09:04:48;16.60;45.00
27258;DHT22;62045;49.986;8.672;2023-02-28T09:09:50;16.90;44.50
27258;DHT22;62045;49.986;8.672;2023-02-28T09:14:51;17.20;44.00
27258;DHT22;62045;49.986;8.672;2023-02-28T09:19:52;17.50;43.80
27258;DHT22;62045;49.986;8.672;2023-02-28T09:24:53;17.50;43.50
27258;DHT22;62045;49.986;8.672;2023-02-28T09:29:54;17.50;43.50
27258;DHT22;62045;49.986;8.672;2023-02-28T09:34:55;17.40;43.60
27258;DHT22;62045;49.986;8.672;2023-02-28T09:39:56;17.30;43.50
27258;DHT22;62045;49.986;8.672;2023-02-28T09:44:57;17.20;43.80
27258;DHT22;62045;49.986;8.672;2023-02-28T09:49:59;17.00;43.90
27258;DHT22;62045;49.986;8.672;2023-02-28T09:55:12;16.80;44.00
27258;DHT22;62045;49.986;8.672;2023-02-28T10:00:19;16.80;44.30
27258;DHT22;62045;49.986;8.672;2023-02-28T10:05:21;16.80;44.20
27258;DHT22;62045;49.986;8.672;2023-02-28T10:10:26;17.00;43.80
27258;DHT22;62045;49.986;8.672;2023-02-28T10:15:29;17.20;43.30
27258;DHT22;62045;49.986;8.672;2023-02-28T10:20:31;17.30;43.00
27258;DHT22;62045;49.986;8.672;2023-02-28T10:25:34;17.30;42.60
27258;DHT22;62045;49.986;8.672;2023-02-28T10:30:36;17.30;42.60
27258;DHT22;62045;49.986;8.672;2023-02-28T10:35:38;17.20;42.50
27258;DHT22;62045;49.986;8.672;2023-02-28T10:40:39;17.00;42.50
27258;DHT22;62045;49.986;8.672;2023-02-28T10:45:51;16.90;43.00
27258;DHT22;62045;49.986;8.672;2023-02-28T10:50:53;16.70;43.10
27258;DHT22;62045;49.986;8.672;2023-02-28T10:55:59;16.70;43.40
27258;DHT22;62045;49.986;8.672;2023-02-28T11:01:00;16.80;43.20
27258;DHT22;62045;49.986;8.672;2023-02-28T11:06:05;17.10;43.00
27258;DHT22;62045;49.986;8.672;2023-02-28T11:11:07;17.30;42.70
27258;DHT22;62045;49.986;8.672;2023-02-28T11:16:09;17.40;42.50
27258;DHT22;62045;49.986;8.672;2023-02-28T11:21:15;17.40;42.30
27258;DHT22;62045;49.986;8.672;2023-02-28T11:26:17;17.30;42.50
27258;DHT22;62045;49.986;8.672;2023-02-28T11:31:35;17.20;42.10
27258;DHT22;62045;49.986;8.672;2023-02-28T11:36:35;17.00;42.10
27258;DHT22;62045;49.986;8.672;2023-02-28T11:41:51;16.90;42.50
27258;DHT22;62045;49.986;8.672;2023-02-28T11:46:58;16.80;42.80
27258;DHT22;62045;49.986;8.672;2023-02-28T11:52:01;16.80;42.90
27258;DHT22;62045;49.986;8.672;2023-02-28T11:57:12;16.90;42.70
27258;DHT22;62045;49.986;8.672;2023-02-28T12:02:23;17.20;42.40
27258;DHT22;62045;49.986;8.672;2023-02-28T12:07:25;17.30;42.10
27258;DHT22;62045;49.986;8.672;2023-02-28T12:12:34;17.30;41.90
27258;DHT22;62045;49.986;8.672;2023-02-28T12:17:42;17.40;42.20
27258;DHT22;62045;49.986;8.672;2023-02-28T12:22:48;17.20;42.20
27258;DHT22;62045;49.986;8.672;2023-02-28T12:27:52;17.10;42.20
27258;DHT22;62045;49.986;8.672;2023-02-28T12:32:53;17.00;42.40
27258;DHT22;62045;49.986;8.672;2023-02-28T12:37:55;16.80;42.50
27258;DHT22;62045;49.986;8.672;2023-02-28T12:42:59;16.80;42.60
27258;DHT22;62045;49.986;8.672;2023-02-28T12:48:04;16.90;42.50
27258;DHT22;62045;49.986;8.672;2023-02-28T12:53:06;17.20;42.20
27258;DHT22;62045;49.986;8.672;2023-02-28T12:58:13;17.30;41.60
27258;DHT22;62045;49.986;8.672;2023-02-28T13:03:24;17.40;41.60
27258;DHT22;62045;49.986;8.672;2023-02-28T13:08:37;17.40;41.70
27258;DHT22;62045;49.986;8.672;2023-02-28T13:13:41;17.30;41.70
27258;DHT22;62045;49.986;8.672;2023-02-28T13:18:45;17.20;41.70
27258;DHT22;62045;49.986;8.672;2023-02-28T13:23:59;17.10;41.70
27258;DHT22;62045;49.986;8.672;2023-02-28T13:29:02;16.90;41.90
27258;DHT22;62045;49.986;8.672;2023-02-28T13:34:05;16.80;42.20
27258;DHT22;62045;49.986;8.672;2023-02-28T13:44:28;17.00;42.10
27258;DHT22;62045;49.986;8.672;2023-02-28T13:49:28;17.20;41.80
27258;DHT22;62045;49.986;8.672;2023-02-28T13:54:33;17.40;41.70
27258;DHT22;62045;49.986;8.672;2023-02-28T13:59:37;17.40;41.70
27258;DHT22;62045;49.986;8.672;2023-02-28T14:09:53;17.30;42.20
27258;DHT22;62045;49.986;8.672;2023-02-28T14:14:56;17.20;42.70
27258;DHT22;62045;49.986;8.672;2023-02-28T14:19:57;17.10;43.00
27258;DHT22;62045;49.986;8.672;2023-02-28T14:25:02;16.90;43.20
27258;DHT22;62045;49.986;8.672;2023-02-28T14:35:35;16.80;43.30
27258;DHT22;62045;49.986;8.672;2023-02-28T14:40:40;17.00;43.10
27258;DHT22;62045;49.986;8.672;2023-02-28T14:45:40;17.30;42.70
27258;DHT22;62045;49.986;8.672;2023-02-28T14:50:47;17.40;42.40
27258;DHT22;62045;49.986;8.672;2023-02-28T14:55:48;17.40;42.30
27258;DHT22;62045;49.986;8.672;2023-02-28T15:00:50;17.40;42.30
27258;DHT22;62045;49.986;8.672;2023-02-28T15:05:53;17.40;42.40
27258;DHT22;62045;49.986;8.672;2023-02-28T15:10:54;17.20;42.40
27258;DHT22;62045;49.986;8.672;2023-02-28T15:15:56;17.10;42.80
27258;DHT22;62045;49.986;8.672;2023-02-28T15:20:58;17.10;43.70
27258;DHT22;62045;49.986;8.672;2023-02-28T15:26:02;17.00;43.80
27258;DHT22;62045;49.986;8.672;2023-02-28T15:31:03;16.90;44.20
27258;DHT22;62045;49.986;8.672;2023-02-28T15:36:18;17.00;44.40
27258;DHT22;62045;49.986;8.672;2023-02-28T15:41:24;17.10;44.40
27258;DHT22;62045;49.986;8.672;2023-02-28T15:46:25;17.30;44.10
27258;DHT22;62045;49.986;8.672;2023-02-28T15:51:29;17.40;43.80
27258;DHT22;62045;49.986;8.672;2023-02-28T15:56:31;17.40;43.70
27258;DHT22;62045;49.986;8.672;2023-02-28T16:01:33;17.30;43.70
27258;DHT22;62045;49.986;8.672;2023-02-28T16:06:39;17.30;43.90
27258;DHT22;62045;49.986;8.672;2023-02-28T16:11:44;17.10;43.90
27258;DHT22;62045;49.986;8.672;2023-02-28T16:16:45;17.00;44.00
27258;DHT22;62045;49.986;8.672;2023-02-28T16:21:48;16.90;44.20
27258;DHT22;62045;49.986;8.672;2023-02-28T16:26:48;16.90;44.30
27258;DHT22;62045;49.986;8.672;2023-02-28T16:31:50;17.00;44.10
27258;DHT22;62045;49.986;8.672;2023-02-28T16:36:52;17.20;43.90
27258;DHT22;62045;49.986;8.672;2023-02-28T16:41:53;17.40;43.80
27258;DHT22;62045;49.986;8.672;2023-02-28T16:46:53;17.40;43.70
27258;DHT22;62045;49.986;8.672;2023-02-28T16:51:56;17.40;43.70
27258;DHT22;62045;49.986;8.672;2023-02-28T16:56:56;17.30;43.80
27258;DHT22;62045;49.986;8.672;2023-02-28T17:01:57;17.20;43.90
27258;DHT22;62045;49.986;8.672;2023-02-28T17:06:59;17.10;44.10
27258;DHT22;62045;49.986;8.672;2023-02-28T17:11:59;17.00;44.20
27258;DHT22;62045;49.986;8.672;2023-02-28T17:17:00;17.00;44.90
27258;DHT22;62045;49.986;8.672;2023-02-28T17:22:02;17.10;47.90
27258;DHT22;62045;49.986;8.672;2023-02-28T17:27:02;17.40;48.40
27258;DHT22;62045;49.986;8.672;2023-02-28T17:32:03;17.50;47.00
27258;DHT22;62045;49.986;8.672;2023-02-28T17:37:05;17.60;46.50
27258;DHT22;62045;49.986;8.672;2023-02-28T17:42:05;17.60;46.20
27258;DHT22;62045;49.986;8.672;2023-02-28T17:47:06;17.50;46.00
27258;DHT22;62045;49.986;8.672;2023-02-28T17:52:08;17.50;46.00
27258;DHT22;62045;49.986;8.672;2023-02-28T17:57:10;17.40;46.00
27258;DHT22;62045;49.986;8.672;2023-02-28T18:02:12;17.30;46.10
27258;DHT22;62045;49.986;8.672;2023-02-28T18:07:14;17.20;46.20
27258;DHT22;62045;49.986;8.672;2023-02-28T18:12:15;17.10;46.20
27258;DHT22;62045;49.986;8.672;2023-02-28T18:17:15;17.00;46.20
27258;DHT22;62045;49.986;8.672;2023-02-28T18:22:17;17.20;46.10
27258;DHT22;62045;49.986;8.672;2023-02-28T18:27:18;17.30;45.80
27258;DHT22;62045;49.986;8.672;2023-02-28T18:32:18;17.50;45.50
27258;DHT22;62045;49.986;8.672;2023-02-28T18:37:20;17.50;45.30
27258;DHT22;62045;49.986;8.672;2023-02-28T18:42:21;17.50;45.20
27258;DHT22;62045;49.986;8.672;2023-02-28T18:47:21;17.50;45.20
27258;DHT22;62045;49.986;8.672;2023-02-28T18:52:23;17.40;45.30
27258;DHT22;62045;49.986;8.672;2023-02-28T18:57:24;17.30;45.40
27258;DHT22;62045;49.986;8.672;2023-02-28T19:02:24;17.20;46.50
27258;DHT22;62045;49.986;8.672;2023-02-28T19:07:26;17.30;48.10
27258;DHT22;62045;49.986;8.672;2023-02-28T19:12:27;17.30;46.80
27258;DHT22;62045;49.986;8.672;2023-02-28T19:17:27;17.30;46.50
27258;DHT22;62045;49.986;8.672;2023-02-28T19:22:29;17.30;46.30
27258;DHT22;62045;49.986;8.672;2023-02-28T19:27:30;17.40;46.10
27258;DHT22;62045;49.986;8.672;2023-02-28T19:32:30;17.50;45.80
27258;DHT22;62045;49.986;8.672;2023-02-28T19:37:32;17.50;45.70
27258;DHT22;62045;49.986;8.672;2023-02-28T19:42:36;17.50;45.60
27258;DHT22;62045;49.986;8.672;2023-02-28T19:47:36;17.40;45.60
27258;DHT22;62045;49.986;8.672;2023-02-28T19:52:38;17.30;45.60
27258;DHT22;62045;49.986;8.672;2023-02-28T19:57:39;17.20;45.70
27258;DHT22;62045;49.986;8.672;2023-02-28T20:02:39;17.10;45.80
27258;DHT22;62045;49.986;8.672;2023-02-28T20:07:41;17.00;45.90
27258;DHT22;62045;49.986;8.672;2023-02-28T20:12:42;17.00;45.90
27258;DHT22;62045;49.986;8.672;2023-02-28T20:17:43;17.20;45.70
27258;DHT22;62045;49.986;8.672;2023-02-28T20:22:44;17.40;45.50
27258;DHT22;62045;49.986;8.672;2023-02-28T20:27:45;17.50;45.10
27258;DHT22;62045;49.986;8.672;2023-02-28T20:32:46;17.60;44.90
27258;DHT22;62045;49.986;8.672;2023-02-28T20:37:48;17.60;45.00
27258;DHT22;62045;49.986;8.672;2023-02-28T20:42:48;17.50;45.70
27258;DHT22;62045;49.986;8.672;2023-02-28T20:47:49;17.40;45.10
27258;DHT22;62045;49.986;8.672;2023-02-28T20:52:51;17.30;45.20
27258;DHT22;62045;49.986;8.672;2023-02-28T20:57:51;17.10;45.30
27258;DHT22;62045;49.986;8.672;2023-02-28T21:02:52;17.00;45.50
27258;DHT22;62045;49.986;8.672;2023-02-28T21:07:54;17.00;45.60
27258;DHT22;62045;49.986;8.672;2023-02-28T21:12:54;17.00;45.50
27258;DHT22;62045;49.986;8.672;2023-02-28T21:17:55;17.20;45.30
27258;DHT22;62045;49.986;8.672;2023-02-28T21:22:57;17.30;45.10
27258;DHT22;62045;49.986;8.672;2023-02-28T21:27:58;17.30;45.10
27258;DHT22;62045;49.986;8.672;2023-02-28T21:32:58;17.20;45.10
27258;DHT22;62045;49.986;8.672;2023-02-28T21:38:00;17.10;45.10
27258;DHT22;62045;49.986;8.672;2023-02-28T21:43:00;17.00;45.20
27258;DHT22;62045;49.986;8.672;2023-02-28T21:48:01;16.90;45.30
27258;DHT22;62045;49.986;8.672;2023-02-28T21:53:03;16.80;45.50
27258;DHT22;62045;49.986;8.672;2023-02-28T21:58:03;16.70;45.60
27258;DHT22;62045;49.986;8.672;2023-02-28T22:03:04;16.50;45.70
27258;DHT22;62045;49.986;8.672;2023-02-28T22:08:06;16.50;45.90
27258;DHT22;62045;49.986;8.672;2023-02-28T22:13:06;16.30;46.00
27258;DHT22;62045;49.986;8.672;2023-02-28T22:18:07;16.30;46.00
27258;DHT22;62045;49.986;8.672;2023-02-28T22:23:09;16.30;46.10
27258;DHT22;62045;49.986;8.672;2023-02-28T22:28:09;16.30;46.00
27258;DHT22;62045;49.986;8.672;2023-02-28T22:33:10;16.50;46.00
27258;DHT22;62045;49.986;8.672;2023-02-28T22:38:12;16.60;45.70
27258;DHT22;62045;49.986;8.672;2023-02-28T22:43:12;16.80;45.50
27258;DHT22;62045;49.986;8.672;2023-02-28T22:48:13;17.00;45.20
27258;DHT22;62045;49.986;8.672;2023-02-28T22:53:15;17.10;44.90
27258;DHT22;62045;49.986;8.672;2023-02-28T22:58:15;17.20;44.70
27258;DHT22;62045;49.986;8.672;2023-02-28T23:03:16;17.20;44.60
27258;DHT22;62045;49.986;8.672;2023-02-28T23:08:18;17.20;44.70
27258;DHT22;62045;49.986;8.672;2023-02-28T23:13:18;17.10;44.70
27258;DHT22;62045;49.986;8.672;2023-02-28T23:18:19;17.00;44.80
27258;DHT22;62045;49.986;8.672;2023-02-28T23:23:21;16.90;44.90
27258;DHT22;62045;49.986;8.672;2023-02-28T23:28:22;16.80;45.00
27258;DHT22;62045;49.986;8.672;2023-02-28T23:33:22;16.80;45.10
27258;DHT22;62045;49.986;8.672;2023-02-28T23:38:24;16.90;45.10
27258;DHT22;62045;49.986;8.672;2023-02-28T23:43:24;17.00;44.90
27258;DHT22;62045;49.986;8.672;2023-02-28T23:48:25;17.20;44.70
27258;DHT22;62045;49.986;8.672;2023-02-28T23:53:29;17.20;44.50
27258;DHT22;62045;49.986;8.672;2023-02-28T23:58:30;17.20;44.40
